sensor_id;sensor_type;location;lat;lon;timestamp;temperature;humidity
66035;HTU21D;52805;51.074;5.842;2022-12-07T00:01:25;6.97;83.43
66035;HTU21D;52805;51.074;5.842;2022-12-07T00:03:53;6.94;83.56
66035;HTU21D;52805;51.074;5.842;2022-12-07T00:06:23;6.90;83.65
66035;HTU21D;52805;51.074;5.842;2022-12-07T00:08:49;6.87;83.74
66035;HTU21D;52805;51.074;5.842;2022-12-07T00:11:20;6.81;83.85
66035;HTU21D;52805;51.074;5.842;2022-12-07T00:13:50;6.78;83.82
66035;HTU21D;52805;51.074;5.842;2022-12-07T00:16:18;6.75;83.79
66035;HTU21D;52805;51.074;5.842;2022-12-07T00:18:45;6.75;83.82
66035;HTU21D;52805;51.074;5.842;2022-12-07T00:21:17;6.71;83.88
66035;HTU21D;52805;51.074;5.842;2022-12-07T00:23:45;6.72;83.82
66035;HTU21D;52805;51.074;5.842;2022-12-07T00:26:16;6.70;83.81
66035;HTU21D;52805;51.074;5.842;2022-12-07T00:29:08;6.67;83.87
66035;HTU21D;52805;51.074;5.842;2022-12-07T00:31:36;6.64;84.03
66035;HTU21D;52805;51.074;5.842;2022-12-07T00:34:13;6.64;84.14
66035;HTU21D;52805;51.074;5.842;2022-12-07T00:36:42;6.65;84.15
66035;HTU21D;52805;51.074;5.842;2022-12-07T00:39:08;6.60;84.23
66035;HTU21D;52805;51.074;5.842;2022-12-07T00:41:34;6.63;84.34
66035;HTU21D;52805;51.074;5.842;2022-12-07T00:44:00;6.63;84.31
66035;HTU21D;52805;51.074;5.842;2022-12-07T00:46:26;6.65;84.33
66035;HTU21D;52805;51.074;5.842;2022-12-07T00:48:53;6.66;84.30
66035;HTU21D;52805;51.074;5.842;2022-12-07T00:51:21;6.68;84.37
66035;HTU21D;52805;51.074;5.842;2022-12-07T00:53:48;6.72;84.35
66035;HTU21D;52805;51.074;5.842;2022-12-07T00:56:22;6.74;84.29
66035;HTU21D;52805;51.074;5.842;2022-12-07T00:58:53;6.80;84.19
66035;HTU21D;52805;51.074;5.842;2022-12-07T01:01:22;6.81;84.06
66035;HTU21D;52805;51.074;5.842;2022-12-07T01:03:50;6.83;84.07
66035;HTU21D;52805;51.074;5.842;2022-12-07T01:06:21;6.84;84.07
66035;HTU21D;52805;51.074;5.842;2022-12-07T01:08:47;6.82;84.01
66035;HTU21D;52805;51.074;5.842;2022-12-07T01:11:17;6.82;84.13
66035;HTU21D;52805;51.074;5.842;2022-12-07T01:13:44;6.81;84.13
66035;HTU21D;52805;51.074;5.842;2022-12-07T01:16:12;6.83;84.15
66035;HTU21D;52805;51.074;5.842;2022-12-07T01:18:39;6.81;84.13
66035;HTU21D;52805;51.074;5.842;2022-12-07T01:21:31;6.82;84.13
66035;HTU21D;52805;51.074;5.842;2022-12-07T01:24:05;6.82;84.16
66035;HTU21D;52805;51.074;5.842;2022-12-07T01:26:31;6.81;84.20
66035;HTU21D;52805;51.074;5.842;2022-12-07T01:28:57;6.80;84.26
66035;HTU21D;52805;51.074;5.842;2022-12-07T01:31:26;6.83;84.37
66035;HTU21D;52805;51.074;5.842;2022-12-07T01:33:56;6.82;84.43
66035;HTU21D;52805;51.074;5.842;2022-12-07T01:36:28;6.80;84.42
66035;HTU21D;52805;51.074;5.842;2022-12-07T01:38:58;6.81;84.51
66035;HTU21D;52805;51.074;5.842;2022-12-07T01:41:26;6.81;84.61
66035;HTU21D;52805;51.074;5.842;2022-12-07T01:46:54;6.82;84.48
66035;HTU21D;52805;51.074;5.842;2022-12-07T01:49:34;6.82;84.52
66035;HTU21D;52805;51.074;5.842;2022-12-07T01:52:14;6.81;84.51
66035;HTU21D;52805;51.074;5.842;2022-12-07T01:54:44;6.85;84.45
66035;HTU21D;52805;51.074;5.842;2022-12-07T01:57:13;6.81;84.53
66035;HTU21D;52805;51.074;5.842;2022-12-07T01:59:43;6.85;84.48
66035;HTU21D;52805;51.074;5.842;2022-12-07T02:02:18;6.79;84.60
66035;HTU21D;52805;51.074;5.842;2022-12-07T02:04:45;6.75;84.77
66035;HTU21D;52805;51.074;5.842;2022-12-07T02:07:12;6.73;84.81
66035;HTU21D;52805;51.074;5.842;2022-12-07T02:09:38;6.71;84.93
66035;HTU21D;52805;51.074;5.842;2022-12-07T02:12:04;6.68;85.03
66035;HTU21D;52805;51.074;5.842;2022-12-07T02:14:30;6.67;85.08
66035;HTU21D;52805;51.074;5.842;2022-12-07T02:17:14;6.65;85.14
66035;HTU21D;52805;51.074;5.842;2022-12-07T02:25:35;6.64;85.29
66035;HTU21D;52805;51.074;5.842;2022-12-07T02:31:01;6.67;85.22
66035;HTU21D;52805;51.074;5.842;2022-12-07T02:33:36;6.69;85.07
66035;HTU21D;52805;51.074;5.842;2022-12-07T02:36:17;6.73;84.95
66035;HTU21D;52805;51.074;5.842;2022-12-07T02:39:02;6.72;84.94
66035;HTU21D;52805;51.074;5.842;2022-12-07T02:41:48;6.75;84.96
66035;HTU21D;52805;51.074;5.842;2022-12-07T02:44:20;6.76;84.89
66035;HTU21D;52805;51.074;5.842;2022-12-07T02:46:59;6.79;84.89
66035;HTU21D;52805;51.074;5.842;2022-12-07T02:49:28;6.80;84.84
66035;HTU21D;52805;51.074;5.842;2022-12-07T02:51:54;6.81;84.78
66035;HTU21D;52805;51.074;5.842;2022-12-07T02:54:21;6.82;84.74
66035;HTU21D;52805;51.074;5.842;2022-12-07T03:02:33;6.83;84.70
66035;HTU21D;52805;51.074;5.842;2022-12-07T03:05:38;6.83;84.63
66035;HTU21D;52805;51.074;5.842;2022-12-07T03:11:04;6.75;84.85
66035;HTU21D;52805;51.074;5.842;2022-12-07T03:13:50;6.74;84.95
66035;HTU21D;52805;51.074;5.842;2022-12-07T03:16:23;6.72;85.00
66035;HTU21D;52805;51.074;5.842;2022-12-07T03:19:27;6.72;84.92
66035;HTU21D;52805;51.074;5.842;2022-12-07T03:22:09;6.70;85.06
66035;HTU21D;52805;51.074;5.842;2022-12-07T03:24:44;6.69;85.05
66035;HTU21D;52805;51.074;5.842;2022-12-07T03:27:49;6.69;84.91
66035;HTU21D;52805;51.074;5.842;2022-12-07T03:30:23;6.70;84.87
66035;HTU21D;52805;51.074;5.842;2022-12-07T03:33:17;6.73;84.75
66035;HTU21D;52805;51.074;5.842;2022-12-07T03:36:06;6.76;84.63
66035;HTU21D;52805;51.074;5.842;2022-12-07T03:38:40;6.79;84.52
66035;HTU21D;52805;51.074;5.842;2022-12-07T03:41:31;6.80;84.53
66035;HTU21D;52805;51.074;5.842;2022-12-07T03:43:58;6.82;84.48
66035;HTU21D;52805;51.074;5.842;2022-12-07T03:46:50;6.82;84.56
66035;HTU21D;52805;51.074;5.842;2022-12-07T03:52:10;6.80;84.63
66035;HTU21D;52805;51.074;5.842;2022-12-07T03:54:47;6.75;84.68
66035;HTU21D;52805;51.074;5.842;2022-12-07T03:57:16;6.70;84.74
66035;HTU21D;52805;51.074;5.842;2022-12-07T03:59:43;6.65;84.81
66035;HTU21D;52805;51.074;5.842;2022-12-07T04:02:12;6.59;84.92
66035;HTU21D;52805;51.074;5.842;2022-12-07T04:04:39;6.53;85.13
66035;HTU21D;52805;51.074;5.842;2022-12-07T04:07:05;6.46;85.12
66035;HTU21D;52805;51.074;5.842;2022-12-07T04:09:30;6.42;85.15
66035;HTU21D;52805;51.074;5.842;2022-12-07T04:11:56;6.39;85.29
66035;HTU21D;52805;51.074;5.842;2022-12-07T04:14:21;6.37;85.31
66035;HTU21D;52805;51.074;5.842;2022-12-07T04:16:53;6.36;85.41
66035;HTU21D;52805;51.074;5.842;2022-12-07T04:19:24;6.37;85.30
66035;HTU21D;52805;51.074;5.842;2022-12-07T04:21:50;6.38;85.27
66035;HTU21D;52805;51.074;5.842;2022-12-07T04:24:16;6.39;85.16
66035;HTU21D;52805;51.074;5.842;2022-12-07T04:26:43;6.39;85.09
66035;HTU21D;52805;51.074;5.842;2022-12-07T04:29:10;6.40;85.02
66035;HTU21D;52805;51.074;5.842;2022-12-07T04:31:37;6.39;85.09
66035;HTU21D;52805;51.074;5.842;2022-12-07T04:34:04;6.38;85.04
66035;HTU21D;52805;51.074;5.842;2022-12-07T04:36:31;6.36;85.02
66035;HTU21D;52805;51.074;5.842;2022-12-07T04:38:57;6.35;85.06
66035;HTU21D;52805;51.074;5.842;2022-12-07T04:41:24;6.34;84.99
66035;HTU21D;52805;51.074;5.842;2022-12-07T04:43:58;6.35;84.95
66035;HTU21D;52805;51.074;5.842;2022-12-07T04:46:24;6.37;84.97
66035;HTU21D;52805;51.074;5.842;2022-12-07T04:48:52;6.36;84.87
66035;HTU21D;52805;51.074;5.842;2022-12-07T04:51:26;6.37;84.81
66035;HTU21D;52805;51.074;5.842;2022-12-07T04:53:54;6.39;84.78
66035;HTU21D;52805;51.074;5.842;2022-12-07T04:56:19;6.40;84.73
66035;HTU21D;52805;51.074;5.842;2022-12-07T04:58:47;6.42;84.69
66035;HTU21D;52805;51.074;5.842;2022-12-07T05:01:15;6.45;84.65
66035;HTU21D;52805;51.074;5.842;2022-12-07T05:03:41;6.49;84.41
66035;HTU21D;52805;51.074;5.842;2022-12-07T05:06:07;6.49;84.49
66035;HTU21D;52805;51.074;5.842;2022-12-07T05:08:33;6.51;84.50
66035;HTU21D;52805;51.074;5.842;2022-12-07T05:11:00;6.52;84.54
66035;HTU21D;52805;51.074;5.842;2022-12-07T05:13:26;6.54;84.56
66035;HTU21D;52805;51.074;5.842;2022-12-07T05:15:51;6.56;84.55
66035;HTU21D;52805;51.074;5.842;2022-12-07T05:18:17;6.57;84.55
66035;HTU21D;52805;51.074;5.842;2022-12-07T05:20:43;6.60;84.63
66035;HTU21D;52805;51.074;5.842;2022-12-07T05:23:09;6.60;84.69
66035;HTU21D;52805;51.074;5.842;2022-12-07T05:25:36;6.63;84.67
66035;HTU21D;52805;51.074;5.842;2022-12-07T05:28:02;6.64;84.64
66035;HTU21D;52805;51.074;5.842;2022-12-07T05:30:28;6.65;84.70
66035;HTU21D;52805;51.074;5.842;2022-12-07T05:32:55;6.67;84.85
66035;HTU21D;52805;51.074;5.842;2022-12-07T05:35:21;6.68;84.81
66035;HTU21D;52805;51.074;5.842;2022-12-07T05:37:47;6.68;84.84
66035;HTU21D;52805;51.074;5.842;2022-12-07T05:40:14;6.71;84.76
66035;HTU21D;52805;51.074;5.842;2022-12-07T05:42:41;6.73;84.71
66035;HTU21D;52805;51.074;5.842;2022-12-07T05:45:08;6.73;84.62
66035;HTU21D;52805;51.074;5.842;2022-12-07T05:47:35;6.73;84.48
66035;HTU21D;52805;51.074;5.842;2022-12-07T05:50:02;6.72;84.43
66035;HTU21D;52805;51.074;5.842;2022-12-07T05:52:28;6.68;84.40
66035;HTU21D;52805;51.074;5.842;2022-12-07T05:54:54;6.71;84.31
66035;HTU21D;52805;51.074;5.842;2022-12-07T05:57:19;6.67;84.48
66035;HTU21D;52805;51.074;5.842;2022-12-07T05:59:45;6.66;84.50
66035;HTU21D;52805;51.074;5.842;2022-12-07T06:02:13;6.66;84.52
66035;HTU21D;52805;51.074;5.842;2022-12-07T06:04:44;6.67;84.52
66035;HTU21D;52805;51.074;5.842;2022-12-07T06:07:12;6.66;84.62
66035;HTU21D;52805;51.074;5.842;2022-12-07T06:09:38;6.67;84.70
66035;HTU21D;52805;51.074;5.842;2022-12-07T06:12:05;6.68;84.73
66035;HTU21D;52805;51.074;5.842;2022-12-07T06:14:49;6.66;84.84
66035;HTU21D;52805;51.074;5.842;2022-12-07T06:17:15;6.66;84.90
66035;HTU21D;52805;51.074;5.842;2022-12-07T06:19:41;6.64;84.99
66035;HTU21D;52805;51.074;5.842;2022-12-07T06:22:07;6.64;85.07
66035;HTU21D;52805;51.074;5.842;2022-12-07T06:24:35;6.63;85.11
66035;HTU21D;52805;51.074;5.842;2022-12-07T06:27:01;6.61;85.07
66035;HTU21D;52805;51.074;5.842;2022-12-07T06:29:26;6.60;85.00
66035;HTU21D;52805;51.074;5.842;2022-12-07T06:31:53;6.64;85.02
66035;HTU21D;52805;51.074;5.842;2022-12-07T06:34:20;6.60;85.17
66035;HTU21D;52805;51.074;5.842;2022-12-07T06:36:48;6.60;85.38
66035;HTU21D;52805;51.074;5.842;2022-12-07T06:39:21;6.57;85.30
66035;HTU21D;52805;51.074;5.842;2022-12-07T06:41:47;6.60;85.38
66035;HTU21D;52805;51.074;5.842;2022-12-07T06:44:14;6.63;85.29
66035;HTU21D;52805;51.074;5.842;2022-12-07T06:46:39;6.59;85.30
66035;HTU21D;52805;51.074;5.842;2022-12-07T06:49:05;6.60;85.38
66035;HTU21D;52805;51.074;5.842;2022-12-07T06:51:32;6.60;85.53
66035;HTU21D;52805;51.074;5.842;2022-12-07T06:54:00;6.60;85.46
66035;HTU21D;52805;51.074;5.842;2022-12-07T06:56:26;6.61;85.35
66035;HTU21D;52805;51.074;5.842;2022-12-07T06:58:51;6.64;85.37
66035;HTU21D;52805;51.074;5.842;2022-12-07T07:01:18;6.64;85.25
66035;HTU21D;52805;51.074;5.842;2022-12-07T07:03:45;6.63;85.16
66035;HTU21D;52805;51.074;5.842;2022-12-07T07:06:12;6.61;85.20
66035;HTU21D;52805;51.074;5.842;2022-12-07T07:08:39;6.59;85.07
66035;HTU21D;52805;51.074;5.842;2022-12-07T07:11:06;6.58;85.00
66035;HTU21D;52805;51.074;5.842;2022-12-07T07:13:33;6.57;84.96
66035;HTU21D;52805;51.074;5.842;2022-12-07T07:15:59;6.54;84.99
66035;HTU21D;52805;51.074;5.842;2022-12-07T07:18:26;6.51;85.09
66035;HTU21D;52805;51.074;5.842;2022-12-07T07:20:52;6.49;84.99
66035;HTU21D;52805;51.074;5.842;2022-12-07T07:23:18;6.45;85.10
66035;HTU21D;52805;51.074;5.842;2022-12-07T07:25:45;6.43;85.22
66035;HTU21D;52805;51.074;5.842;2022-12-07T07:28:11;6.44;85.13
66035;HTU21D;52805;51.074;5.842;2022-12-07T07:30:36;6.43;84.99
66035;HTU21D;52805;51.074;5.842;2022-12-07T07:33:04;6.43;84.90
66035;HTU21D;52805;51.074;5.842;2022-12-07T07:35:32;6.41;84.87
66035;HTU21D;52805;51.074;5.842;2022-12-07T07:37:58;6.38;84.84
66035;HTU21D;52805;51.074;5.842;2022-12-07T07:40:24;6.35;84.81
66035;HTU21D;52805;51.074;5.842;2022-12-07T07:42:52;6.35;84.64
66035;HTU21D;52805;51.074;5.842;2022-12-07T07:45:19;6.33;84.68
66035;HTU21D;52805;51.074;5.842;2022-12-07T07:47:48;6.30;84.73
66035;HTU21D;52805;51.074;5.842;2022-12-07T07:50:13;6.28;84.74
66035;HTU21D;52805;51.074;5.842;2022-12-07T07:52:39;6.28;84.65
66035;HTU21D;52805;51.074;5.842;2022-12-07T07:55:06;6.28;84.58
66035;HTU21D;52805;51.074;5.842;2022-12-07T07:57:35;6.25;84.62
66035;HTU21D;52805;51.074;5.842;2022-12-07T08:00:02;6.22;84.57
66035;HTU21D;52805;51.074;5.842;2022-12-07T08:02:38;6.24;84.58
66035;HTU21D;52805;51.074;5.842;2022-12-07T08:05:04;6.23;84.49
66035;HTU21D;52805;51.074;5.842;2022-12-07T08:07:30;6.24;84.45
66035;HTU21D;52805;51.074;5.842;2022-12-07T08:09:56;6.23;84.41
66035;HTU21D;52805;51.074;5.842;2022-12-07T08:12:21;6.24;84.44
66035;HTU21D;52805;51.074;5.842;2022-12-07T08:14:47;6.23;84.49
66035;HTU21D;52805;51.074;5.842;2022-12-07T08:17:13;6.23;84.45
66035;HTU21D;52805;51.074;5.842;2022-12-07T08:19:39;6.22;84.41
66035;HTU21D;52805;51.074;5.842;2022-12-07T08:22:04;6.23;84.40
66035;HTU21D;52805;51.074;5.842;2022-12-07T08:24:33;6.26;84.25
66035;HTU21D;52805;51.074;5.842;2022-12-07T08:26:59;6.29;84.22
66035;HTU21D;52805;51.074;5.842;2022-12-07T08:29:25;6.33;84.07
66035;HTU21D;52805;51.074;5.842;2022-12-07T08:31:51;6.38;84.22
66035;HTU21D;52805;51.074;5.842;2022-12-07T08:34:16;6.45;84.07
66035;HTU21D;52805;51.074;5.842;2022-12-07T08:36:42;6.55;84.00
66035;HTU21D;52805;51.074;5.842;2022-12-07T08:39:08;6.56;84.10
66035;HTU21D;52805;51.074;5.842;2022-12-07T08:41:33;6.60;84.16
66035;HTU21D;52805;51.074;5.842;2022-12-07T08:43:59;6.65;84.07
66035;HTU21D;52805;51.074;5.842;2022-12-07T08:46:32;6.67;84.08
66035;HTU21D;52805;51.074;5.842;2022-12-07T08:49:05;6.70;84.00
66035;HTU21D;52805;51.074;5.842;2022-12-07T08:51:32;6.69;83.90
66035;HTU21D;52805;51.074;5.842;2022-12-07T08:54:02;6.66;84.16
66035;HTU21D;52805;51.074;5.842;2022-12-07T08:56:29;6.67;84.19
66035;HTU21D;52805;51.074;5.842;2022-12-07T08:58:55;6.70;84.22
66035;HTU21D;52805;51.074;5.842;2022-12-07T09:01:20;6.69;84.31
66035;HTU21D;52805;51.074;5.842;2022-12-07T09:03:46;6.73;84.18
66035;HTU21D;52805;51.074;5.842;2022-12-07T09:06:12;6.75;84.20
66035;HTU21D;52805;51.074;5.842;2022-12-07T09:08:46;6.79;84.10
66035;HTU21D;52805;51.074;5.842;2022-12-07T09:11:12;6.76;84.21
66035;HTU21D;52805;51.074;5.842;2022-12-07T09:13:38;6.75;84.39
66035;HTU21D;52805;51.074;5.842;2022-12-07T09:16:04;6.78;84.33
66035;HTU21D;52805;51.074;5.842;2022-12-07T09:18:30;6.76;84.47
66035;HTU21D;52805;51.074;5.842;2022-12-07T09:20:56;6.81;84.39
66035;HTU21D;52805;51.074;5.842;2022-12-07T09:23:22;6.84;84.32
66035;HTU21D;52805;51.074;5.842;2022-12-07T09:25:48;6.87;84.33
66035;HTU21D;52805;51.074;5.842;2022-12-07T09:28:13;6.91;84.28
66035;HTU21D;52805;51.074;5.842;2022-12-07T09:30:45;6.95;84.19
66035;HTU21D;52805;51.074;5.842;2022-12-07T09:33:11;6.99;83.99
66035;HTU21D;52805;51.074;5.842;2022-12-07T09:35:37;7.03;83.86
66035;HTU21D;52805;51.074;5.842;2022-12-07T09:38:02;7.01;83.86
66035;HTU21D;52805;51.074;5.842;2022-12-07T09:40:29;7.03;83.79
66035;HTU21D;52805;51.074;5.842;2022-12-07T09:42:55;7.05;83.85
66035;HTU21D;52805;51.074;5.842;2022-12-07T09:45:22;7.04;83.95
66035;HTU21D;52805;51.074;5.842;2022-12-07T09:47:48;7.05;83.94
66035;HTU21D;52805;51.074;5.842;2022-12-07T09:50:27;7.05;83.96
66035;HTU21D;52805;51.074;5.842;2022-12-07T09:53:05;7.03;84.13
66035;HTU21D;52805;51.074;5.842;2022-12-07T09:55:41;7.04;83.96
66035;HTU21D;52805;51.074;5.842;2022-12-07T09:58:22;7.05;84.02
66035;HTU21D;52805;51.074;5.842;2022-12-07T10:00:52;7.10;84.00
66035;HTU21D;52805;51.074;5.842;2022-12-07T10:03:19;7.19;83.83
66035;HTU21D;52805;51.074;5.842;2022-12-07T10:05:49;7.29;83.79
66035;HTU21D;52805;51.074;5.842;2022-12-07T10:08:16;7.43;83.58
66035;HTU21D;52805;51.074;5.842;2022-12-07T10:10:44;7.53;83.52
66035;HTU21D;52805;51.074;5.842;2022-12-07T10:13:13;7.63;83.26
66035;HTU21D;52805;51.074;5.842;2022-12-07T10:15:40;7.69;83.07
66035;HTU21D;52805;51.074;5.842;2022-12-07T10:20:48;7.74;83.05
66035;HTU21D;52805;51.074;5.842;2022-12-07T10:23:17;7.75;83.18
66035;HTU21D;52805;51.074;5.842;2022-12-07T10:25:44;7.78;83.43
66035;HTU21D;52805;51.074;5.842;2022-12-07T10:30:58;7.84;83.24
66035;HTU21D;52805;51.074;5.842;2022-12-07T10:33:50;7.88;83.28
66035;HTU21D;52805;51.074;5.842;2022-12-07T10:36:23;7.93;83.07
66035;HTU21D;52805;51.074;5.842;2022-12-07T10:42:03;8.07;82.71
66035;HTU21D;52805;51.074;5.842;2022-12-07T10:44:33;8.12;82.59
66035;HTU21D;52805;51.074;5.842;2022-12-07T11:01:25;8.47;81.61
66035;HTU21D;52805;51.074;5.842;2022-12-07T11:04:13;8.44;81.62
66035;HTU21D;52805;51.074;5.842;2022-12-07T11:15:26;8.36;81.11
66035;HTU21D;52805;51.074;5.842;2022-12-07T11:23:55;8.38;80.60
66035;HTU21D;52805;51.074;5.842;2022-12-07T11:37:57;8.45;80.27
66035;HTU21D;52805;51.074;5.842;2022-12-07T11:40:29;8.57;79.99
66035;HTU21D;52805;51.074;5.842;2022-12-07T11:43:02;8.62;79.56
66035;HTU21D;52805;51.074;5.842;2022-12-07T11:45:33;8.63;79.34
66035;HTU21D;52805;51.074;5.842;2022-12-07T11:48:03;8.62;79.45
66035;HTU21D;52805;51.074;5.842;2022-12-07T11:50:37;8.64;79.41
66035;HTU21D;52805;51.074;5.842;2022-12-07T11:56:02;8.62;79.37
66035;HTU21D;52805;51.074;5.842;2022-12-07T11:58:47;8.62;79.48
66035;HTU21D;52805;51.074;5.842;2022-12-07T12:04:05;8.55;79.34
66035;HTU21D;52805;51.074;5.842;2022-12-07T12:06:32;8.50;79.45
66035;HTU21D;52805;51.074;5.842;2022-12-07T12:12:03;8.48;79.73
66035;HTU21D;52805;51.074;5.842;2022-12-07T12:15:00;8.49;79.88
66035;HTU21D;52805;51.074;5.842;2022-12-07T12:23:19;8.67;79.44
66035;HTU21D;52805;51.074;5.842;2022-12-07T12:25:59;8.68;79.09
66035;HTU21D;52805;51.074;5.842;2022-12-07T12:28:39;8.67;79.08
66035;HTU21D;52805;51.074;5.842;2022-12-07T12:36:47;8.82;79.01
66035;HTU21D;52805;51.074;5.842;2022-12-07T12:39:16;8.88;79.02
66035;HTU21D;52805;51.074;5.842;2022-12-07T12:57:34;8.82;78.58
66035;HTU21D;52805;51.074;5.842;2022-12-07T13:00:18;8.87;78.76
66035;HTU21D;52805;51.074;5.842;2022-12-07T13:02:53;8.88;78.64
66035;HTU21D;52805;51.074;5.842;2022-12-07T13:05:20;8.88;78.72
66035;HTU21D;52805;51.074;5.842;2022-12-07T13:10:39;8.85;78.80
66035;HTU21D;52805;51.074;5.842;2022-12-07T13:29:20;8.66;78.93
66035;HTU21D;52805;51.074;5.842;2022-12-07T13:31:55;8.60;78.96
66035;HTU21D;52805;51.074;5.842;2022-12-07T13:36:53;8.58;78.88
66035;HTU21D;52805;51.074;5.842;2022-12-07T13:39:21;8.56;79.08
66035;HTU21D;52805;51.074;5.842;2022-12-07T13:41:56;8.53;79.04
66035;HTU21D;52805;51.074;5.842;2022-12-07T13:44:25;8.51;79.12
66035;HTU21D;52805;51.074;5.842;2022-12-07T13:47:15;8.51;79.08
66035;HTU21D;52805;51.074;5.842;2022-12-07T13:49:56;8.46;78.53
66035;HTU21D;52805;51.074;5.842;2022-12-07T13:52:24;8.44;79.01
66035;HTU21D;52805;51.074;5.842;2022-12-07T13:57:35;8.41;79.14
66035;HTU21D;52805;51.074;5.842;2022-12-07T14:00:03;8.39;79.09
66035;HTU21D;52805;51.074;5.842;2022-12-07T14:02:32;8.38;79.19
66035;HTU21D;52805;51.074;5.842;2022-12-07T14:05:22;8.39;79.17
66035;HTU21D;52805;51.074;5.842;2022-12-07T14:08:00;8.41;79.24
66035;HTU21D;52805;51.074;5.842;2022-12-07T14:12:59;8.43;79.18
66035;HTU21D;52805;51.074;5.842;2022-12-07T14:15:31;8.44;79.14
66035;HTU21D;52805;51.074;5.842;2022-12-07T14:17:59;8.46;79.06
66035;HTU21D;52805;51.074;5.842;2022-12-07T14:20:33;8.47;79.15
66035;HTU21D;52805;51.074;5.842;2022-12-07T14:22:59;8.51;79.09
66035;HTU21D;52805;51.074;5.842;2022-12-07T14:25:26;8.48;79.11
66035;HTU21D;52805;51.074;5.842;2022-12-07T14:28:00;8.48;79.10
66035;HTU21D;52805;51.074;5.842;2022-12-07T14:30:31;8.51;79.08
66035;HTU21D;52805;51.074;5.842;2022-12-07T14:33:00;8.49;78.91
66035;HTU21D;52805;51.074;5.842;2022-12-07T14:35:27;8.43;78.85
66035;HTU21D;52805;51.074;5.842;2022-12-07T14:37:53;8.39;78.98
66035;HTU21D;52805;51.074;5.842;2022-12-07T14:40:25;8.34;79.14
66035;HTU21D;52805;51.074;5.842;2022-12-07T14:45:24;8.23;79.30
66035;HTU21D;52805;51.074;5.842;2022-12-07T14:47:49;8.20;79.33
66035;HTU21D;52805;51.074;5.842;2022-12-07T14:50:18;8.18;79.41
66035;HTU21D;52805;51.074;5.842;2022-12-07T14:52:56;8.11;79.66
66035;HTU21D;52805;51.074;5.842;2022-12-07T14:55:29;8.07;79.63
66035;HTU21D;52805;51.074;5.842;2022-12-07T14:57:56;8.04;79.50
66035;HTU21D;52805;51.074;5.842;2022-12-07T15:00:26;7.93;79.85
66035;HTU21D;52805;51.074;5.842;2022-12-07T15:02:52;7.88;79.98
66035;HTU21D;52805;51.074;5.842;2022-12-07T15:05:18;7.83;80.05
66035;HTU21D;52805;51.074;5.842;2022-12-07T15:07:46;7.77;80.20
66035;HTU21D;52805;51.074;5.842;2022-12-07T15:10:21;7.74;80.23
66035;HTU21D;52805;51.074;5.842;2022-12-07T15:12:47;7.70;80.33
66035;HTU21D;52805;51.074;5.842;2022-12-07T15:15:13;7.71;80.14
66035;HTU21D;52805;51.074;5.842;2022-12-07T15:17:39;7.67;80.11
66035;HTU21D;52805;51.074;5.842;2022-12-07T15:20:05;7.64;80.08
66035;HTU21D;52805;51.074;5.842;2022-12-07T15:22:33;7.61;80.05
66035;HTU21D;52805;51.074;5.842;2022-12-07T15:24:58;7.60;79.83
66035;HTU21D;52805;51.074;5.842;2022-12-07T15:27:24;7.59;79.89
66035;HTU21D;52805;51.074;5.842;2022-12-07T15:29:50;7.57;79.88
66035;HTU21D;52805;51.074;5.842;2022-12-07T15:32:15;7.56;79.86
66035;HTU21D;52805;51.074;5.842;2022-12-07T15:34:41;7.56;79.88
66035;HTU21D;52805;51.074;5.842;2022-12-07T15:37:07;7.54;79.91
66035;HTU21D;52805;51.074;5.842;2022-12-07T15:39:33;7.49;79.96
66035;HTU21D;52805;51.074;5.842;2022-12-07T15:41:59;7.45;79.88
66035;HTU21D;52805;51.074;5.842;2022-12-07T15:44:25;7.43;79.85
66035;HTU21D;52805;51.074;5.842;2022-12-07T15:47:09;7.38;79.73
66035;HTU21D;52805;51.074;5.842;2022-12-07T15:49:35;7.34;79.72
66035;HTU21D;52805;51.074;5.842;2022-12-07T15:52:00;7.29;79.85
66035;HTU21D;52805;51.074;5.842;2022-12-07T15:54:28;7.32;79.83
66035;HTU21D;52805;51.074;5.842;2022-12-07T15:56:54;7.27;79.82
66035;HTU21D;52805;51.074;5.842;2022-12-07T15:59:20;7.27;79.87
66035;HTU21D;52805;51.074;5.842;2022-12-07T16:01:46;7.29;79.82
66035;HTU21D;52805;51.074;5.842;2022-12-07T16:04:12;7.30;79.72
66035;HTU21D;52805;51.074;5.842;2022-12-07T16:06:38;7.31;79.69
66035;HTU21D;52805;51.074;5.842;2022-12-07T16:09:05;7.32;79.71
66035;HTU21D;52805;51.074;5.842;2022-12-07T16:11:31;7.34;79.74
66035;HTU21D;52805;51.074;5.842;2022-12-07T16:13:57;7.37;79.89
66035;HTU21D;52805;51.074;5.842;2022-12-07T16:16:23;7.39;79.87
66035;HTU21D;52805;51.074;5.842;2022-12-07T16:18:50;7.40;79.94
66035;HTU21D;52805;51.074;5.842;2022-12-07T16:21:17;7.41;79.95
66035;HTU21D;52805;51.074;5.842;2022-12-07T16:23:43;7.44;79.93
66035;HTU21D;52805;51.074;5.842;2022-12-07T16:26:20;7.41;80.22
66035;HTU21D;52805;51.074;5.842;2022-12-07T16:28:49;7.40;80.36
66035;HTU21D;52805;51.074;5.842;2022-12-07T16:31:18;7.41;80.55
66035;HTU21D;52805;51.074;5.842;2022-12-07T16:33:45;7.39;80.66
66035;HTU21D;52805;51.074;5.842;2022-12-07T16:36:13;7.37;80.86
66035;HTU21D;52805;51.074;5.842;2022-12-07T16:38:41;7.38;81.00
66035;HTU21D;52805;51.074;5.842;2022-12-07T16:41:07;7.40;81.20
66035;HTU21D;52805;51.074;5.842;2022-12-07T16:43:33;7.39;81.36
66035;HTU21D;52805;51.074;5.842;2022-12-07T16:45:59;7.39;81.44
66035;HTU21D;52805;51.074;5.842;2022-12-07T16:48:25;7.37;81.63
66035;HTU21D;52805;51.074;5.842;2022-12-07T16:50:51;7.35;81.84
66035;HTU21D;52805;51.074;5.842;2022-12-07T16:53:20;7.33;81.93
66035;HTU21D;52805;51.074;5.842;2022-12-07T16:55:46;7.31;81.88
66035;HTU21D;52805;51.074;5.842;2022-12-07T16:58:14;7.28;82.01
66035;HTU21D;52805;51.074;5.842;2022-12-07T17:00:44;7.26;81.99
66035;HTU21D;52805;51.074;5.842;2022-12-07T17:03:10;7.23;82.12
66035;HTU21D;52805;51.074;5.842;2022-12-07T17:05:38;7.20;82.14
66035;HTU21D;52805;51.074;5.842;2022-12-07T17:08:04;7.17;82.10
66035;HTU21D;52805;51.074;5.842;2022-12-07T17:10:30;7.16;82.21
66035;HTU21D;52805;51.074;5.842;2022-12-07T17:12:58;7.14;82.28
66035;HTU21D;52805;51.074;5.842;2022-12-07T17:15:23;7.14;82.22
66035;HTU21D;52805;51.074;5.842;2022-12-07T17:17:55;7.13;82.28
66035;HTU21D;52805;51.074;5.842;2022-12-07T17:20:23;7.14;82.37
66035;HTU21D;52805;51.074;5.842;2022-12-07T17:22:49;7.15;82.27
66035;HTU21D;52805;51.074;5.842;2022-12-07T17:25:16;7.15;82.33
66035;HTU21D;52805;51.074;5.842;2022-12-07T17:27:43;7.15;82.33
66035;HTU21D;52805;51.074;5.842;2022-12-07T17:30:10;7.17;82.32
66035;HTU21D;52805;51.074;5.842;2022-12-07T17:32:35;7.17;82.36
66035;HTU21D;52805;51.074;5.842;2022-12-07T17:35:02;7.16;82.41
66035;HTU21D;52805;51.074;5.842;2022-12-07T17:37:28;7.19;82.39
66035;HTU21D;52805;51.074;5.842;2022-12-07T17:39:55;7.19;82.52
66035;HTU21D;52805;51.074;5.842;2022-12-07T17:42:26;7.20;82.56
66035;HTU21D;52805;51.074;5.842;2022-12-07T17:45:12;7.20;82.54
66035;HTU21D;52805;51.074;5.842;2022-12-07T17:47:38;7.22;82.58
66035;HTU21D;52805;51.074;5.842;2022-12-07T17:50:06;7.18;82.65
66035;HTU21D;52805;51.074;5.842;2022-12-07T17:52:32;7.20;82.71
66035;HTU21D;52805;51.074;5.842;2022-12-07T17:55:17;7.25;82.55
66035;HTU21D;52805;51.074;5.842;2022-12-07T17:57:43;7.23;82.56
66035;HTU21D;52805;51.074;5.842;2022-12-07T18:00:09;7.24;82.53
66035;HTU21D;52805;51.074;5.842;2022-12-07T18:02:39;7.24;82.46